Celebrity Summit — 9HJC9 — position and weather

sailwx.info

Track history (hours):
 
Tides and Currents Weather Stations Pressure Air Temp Water Temp Dewpoint Dewpoint Depression Visibility Wind Speed Wind Dir Waves Ship Positions

Celebrity Summit

Last reported at 2017-Oct-20 07:00 UTC. Time now 2017-Oct-20 19:50 UTC.
Position N 44°36' W 062°24'.

Length 294 m; draft 8.3 m.

Type: Passenger vessel. MMSI: 249047000.

Wind from 190 at 37 knots

Barometer 1012.0 mb
Air temperature 16.0 ° C
Visibility: greater than 5.4 NM
Water temperature 10.0 ° C

Date/timePositionNaut miles runAvg speedWind from/ knotsBaromVisibWave heightAir tempDewpointWater temp
2017-Oct-20 07:00N 44°36' W 062°24'144 5.4 190 / 371012.0 5.4 16.0 10.0
2017-Oct-19 04:00N 46°48' W 061°00'38 1.7 300 / 231021.010.8 11.0 9.0
2017-Oct-18 06:00N 46°30' W 061°48'27110.8 220 / 301018.010.8 12.0 10.0
2017-Oct-17 05:00N 49°06' W 067°18'140 3.0 350 / 151018.0 5.4 5.0 6.7
2017-Oct-15 06:00N 47°36' W 070°00'20220.2 350 / 101020.0 5.4 10.0 8.0
2017-Oct-14 20:00N 49°24' W 065°42'138 9.9 270 / 371013.0 5.4 12.0 11.0
2017-Oct-14 06:00N 48°36' W 062°24'2110.4 200 / 381020.0 5.4 11.0 11.2
2017-Oct-14 04:00N 48°30' W 061°54'9824.5 220 / 301025.010.8
2017-Oct-14 00:00N 47°24' W 060°06'6917.3 250 / 131031.027.0 14.0
2017-Oct-13 20:00N 46°18' W 059°36'15118.9 360 / 101032.0 17.0 12.0
2017-Oct-13 12:00N 44°30' W 062°06'12721.2 010 / 211034.027.0 11.0
2017-Oct-13 06:00N 43°30' W 064°42'167 7.2 060 / 211032.010.8 13.0 12.0
2017-Oct-12 06:50N 43°53' W 068°31'3 8.8
2017-Oct-12 06:29N 43°51' W 068°34'1121.7
2017-Oct-12 06:00N 43°42' W 068°42'7108.8 020 / 251028.010.8 11.0 12.5
2017-Oct-12 05:56N 43°49' W 068°40'4 8.8
2017-Oct-12 05:29N 43°46' W 068°44'6 8.4
2017-Oct-12 04:45N 43°43' W 068°51'7 9.6
2017-Oct-12 04:00N 43°36' W 068°54'57 2.7 050 / 281027.010.8
2017-Oct-11 07:00N 43°00' W 069°54'49 7.0 360 / 101018.0 5.4 17.0 14.0
2017-Oct-11 00:00N 42°27' W 070°43'3245.5
2017-Oct-11 00:00N 42°24' W 070°42'4 8.8 350 / 121018.010.8 22.0
2017-Oct-10 23:30N 42°24' W 070°48'4 7.8
2017-Oct-10 23:00N 42°23' W 070°53'510.5
2017-Oct-10 22:30N 42°20' W 070°58'3 5.1
2017-Oct-10 21:59N 42°21' W 071°02'0 0.0
2017-Oct-10 21:29N 42°21' W 071°02'0 0.0
2017-Oct-10 20:56N 42°21' W 071°02'0 0.0
2017-Oct-10 20:29N 42°21' W 071°02'0 0.0
2017-Oct-10 19:59N 42°21' W 071°02'0 0.0
2017-Oct-10 19:30N 42°21' W 071°02'0 0.0
2017-Oct-10 18:59N 42°21' W 071°02'0 0.0
2017-Oct-10 18:29N 42°21' W 071°02'0 0.0
2017-Oct-10 17:59N 42°21' W 071°02'0 0.0
2017-Oct-10 17:29N 42°21' W 071°02'0 0.0
2017-Oct-10 16:59N 42°21' W 071°02'0 0.0
2017-Oct-10 16:29N 42°21' W 071°02'0 0.0
2017-Oct-10 15:59N 42°21' W 071°02'0 0.0
2017-Oct-10 15:29N 42°21' W 071°02'0 0.0
2017-Oct-10 14:59N 42°21' W 071°02'0 0.0
2017-Oct-10 13:59N 42°21' W 071°02'0 0.0
2017-Oct-10 13:29N 42°21' W 071°02'0 0.0
2017-Oct-10 12:59N 42°21' W 071°02'0 0.0
2017-Oct-10 12:29N 42°21' W 071°02'0 0.0
2017-Oct-10 11:59N 42°21' W 071°02'0 0.0
2017-Oct-10 11:29N 42°21' W 071°02'0 0.0
2017-Oct-10 10:59N 42°21' W 071°02'0 0.6
2017-Oct-10 10:30N 42°21' W 071°02'1 2.7
2017-Oct-10 10:00N 42°20' W 070°60'510.5
2017-Oct-10 09:30N 42°23' W 070°54'611.1
2017-Oct-10 09:00N 42°24' W 070°46'511.0
2017-Oct-10 08:31N 42°22' W 070°39'611.5
2017-Oct-10 08:00N 42°21' W 070°31'612.4
2017-Oct-10 07:30N 42°20' W 070°23'612.5
2017-Oct-10 07:00N 42°20' W 070°15'7413.0
2017-Oct-10 07:00N 42°18' W 070°06'   200 / 251011.0 0.3 19.0 16.0
Track history (hours):
 
Tides and Currents Weather Stations Pressure Air Temp Water Temp Dewpoint Dewpoint Depression Visibility Wind Speed Wind Dir Waves Ship Positions

Celebrity Summit

Last reported at 2017-Oct-20 07:00 UTC. Time now 2017-Oct-20 19:50 UTC.
Position N 44°36' W 062°24'.

Length 294 m; draft 8.3 m.

Type: Passenger vessel. MMSI: 249047000.

Wind from 190 at 37 knots

Barometer 1012.0 mb
Air temperature 16.0 ° C
Visibility: greater than 5.4 NM
Water temperature 10.0 ° C

Date/timePositionNaut miles runAvg speedWind from/ knotsBaromVisibWave heightAir tempDewpointWater temp
2017-Oct-20 07:00N 44°36' W 062°24'144 5.4 190 / 371012.0 5.4 16.0 10.0
2017-Oct-19 04:00N 46°48' W 061°00'38 1.7 300 / 231021.010.8 11.0 9.0
2017-Oct-18 06:00N 46°30' W 061°48'27110.8 220 / 301018.010.8 12.0 10.0
2017-Oct-17 05:00N 49°06' W 067°18'140 3.0 350 / 151018.0 5.4 5.0 6.7
2017-Oct-15 06:00N 47°36' W 070°00'20220.2 350 / 101020.0 5.4 10.0 8.0
2017-Oct-14 20:00N 49°24' W 065°42'138 9.9 270 / 371013.0 5.4 12.0 11.0
2017-Oct-14 06:00N 48°36' W 062°24'2110.4 200 / 381020.0 5.4 11.0 11.2
2017-Oct-14 04:00N 48°30' W 061°54'9824.5 220 / 301025.010.8
2017-Oct-14 00:00N 47°24' W 060°06'6917.3 250 / 131031.027.0 14.0
2017-Oct-13 20:00N 46°18' W 059°36'15118.9 360 / 101032.0 17.0 12.0
2017-Oct-13 12:00N 44°30' W 062°06'12721.2 010 / 211034.027.0 11.0
2017-Oct-13 06:00N 43°30' W 064°42'167 7.2 060 / 211032.010.8 13.0 12.0
2017-Oct-12 06:50N 43°53' W 068°31'3 8.8
2017-Oct-12 06:29N 43°51' W 068°34'1121.7
2017-Oct-12 06:00N 43°42' W 068°42'7108.8 020 / 251028.010.8 11.0 12.5
2017-Oct-12 05:56N 43°49' W 068°40'4 8.8
2017-Oct-12 05:29N 43°46' W 068°44'6 8.4
2017-Oct-12 04:45N 43°43' W 068°51'7 9.6
2017-Oct-12 04:00N 43°36' W 068°54'57 2.7 050 / 281027.010.8
2017-Oct-11 07:00N 43°00' W 069°54'49 7.0 360 / 101018.0 5.4 17.0 14.0
2017-Oct-11 00:00N 42°27' W 070°43'3245.5
2017-Oct-11 00:00N 42°24' W 070°42'4 8.8 350 / 121018.010.8 22.0
2017-Oct-10 23:30N 42°24' W 070°48'4 7.8
2017-Oct-10 23:00N 42°23' W 070°53'510.5
2017-Oct-10 22:30N 42°20' W 070°58'3 5.1
2017-Oct-10 21:59N 42°21' W 071°02'0 0.0
2017-Oct-10 21:29N 42°21' W 071°02'0 0.0
2017-Oct-10 20:56N 42°21' W 071°02'0 0.0
2017-Oct-10 20:29N 42°21' W 071°02'0 0.0
2017-Oct-10 19:59N 42°21' W 071°02'0 0.0
2017-Oct-10 19:30N 42°21' W 071°02'0 0.0
2017-Oct-10 18:59N 42°21' W 071°02'0 0.0
2017-Oct-10 18:29N 42°21' W 071°02'0 0.0
2017-Oct-10 17:59N 42°21' W 071°02'0 0.0
2017-Oct-10 17:29N 42°21' W 071°02'0 0.0
2017-Oct-10 16:59N 42°21' W 071°02'0 0.0
2017-Oct-10 16:29N 42°21' W 071°02'0 0.0
2017-Oct-10 15:59N 42°21' W 071°02'0 0.0
2017-Oct-10 15:29N 42°21' W 071°02'0 0.0
2017-Oct-10 14:59N 42°21' W 071°02'0 0.0
2017-Oct-10 13:59N 42°21' W 071°02'0 0.0
2017-Oct-10 13:29N 42°21' W 071°02'0 0.0
2017-Oct-10 12:59N 42°21' W 071°02'0 0.0
2017-Oct-10 12:29N 42°21' W 071°02'0 0.0
2017-Oct-10 11:59N 42°21' W 071°02'0 0.0
2017-Oct-10 11:29N 42°21' W 071°02'0 0.0
2017-Oct-10 10:59N 42°21' W 071°02'0 0.6
2017-Oct-10 10:30N 42°21' W 071°02'1 2.7
2017-Oct-10 10:00N 42°20' W 070°60'510.5
2017-Oct-10 09:30N 42°23' W 070°54'611.1
2017-Oct-10 09:00N 42°24' W 070°46'511.0
2017-Oct-10 08:31N 42°22' W 070°39'611.5
2017-Oct-10 08:00N 42°21' W 070°31'612.4
2017-Oct-10 07:30N 42°20' W 070°23'612.5
2017-Oct-10 07:00N 42°20' W 070°15'7413.0
2017-Oct-10 07:00N 42°18' W 070°06'   200 / 251011.0 0.3 19.0 16.0

Dump ship's entire track history